KISW/ISW METAR and TAF weather

Enter ICAO airport designator
Station Type Date Time Source
KISW METAR 2019/12/13 16:54 UTC NOAA

KISW 131654Z AUTO 00000KT 5SM HZ OVC029 M05/M08 A2993 RMK AO2 SLP152 T10501078


Station Type Date Time Source
KISW Decoded METAR 2019/12/13 16:54 UTC NOAA

WI RAPIDS ALEXANDER FIELD, WI, United States (KISW) 44-22N 89-50W 307M
Dec 13, 2019 - 11:54 AM EST / 2019.12.13 1654 UTC
Wind: Calm:0
Visibility: 5 mile(s):0
Sky conditions: overcast
Weather: haze
Temperature: 23.0 F (-5.0 C)
Dew Point: 18.0 F (-7.8 C)
Relative Humidity: 80%
Pressure (altimeter): 29.93 in. Hg (1013 hPa)
ob: KISW 131654Z AUTO 00000KT 5SM HZ OVC029 M05/M08 A2993 RMK AO2 SLP152 T10501078
cycle: 17

Station Type Date Time Source
KISW TAF UTC NOAA

Error!

Example: see airport list